createdAt,value
2022-10-09T00:01:25.330Z,22.87
2022-10-09T00:04:05.899Z,21.60
2022-10-09T00:06:56.454Z,22.43
2022-10-09T00:09:30.476Z,24.13
2022-10-09T00:12:25.260Z,25.43
2022-10-09T00:21:40.202Z,21.47
2022-10-09T00:24:39.680Z,21.17
2022-10-09T00:27:25.308Z,21.17
2022-10-09T00:29:53.988Z,21.93
2022-10-09T00:32:22.557Z,20.63
2022-10-09T00:34:50.465Z,34.03
2022-10-09T00:37:48.580Z,21.27
2022-10-09T00:40:21.349Z,19.47
2022-10-09T00:42:56.535Z,21.07
2022-10-09T00:45:27.418Z,21.57
2022-10-09T00:47:57.170Z,19.70
2022-10-09T00:50:26.153Z,19.53
2022-10-09T00:53:00.159Z,20.90
2022-10-09T00:55:44.089Z,19.50
2022-10-09T00:58:17.259Z,17.23
2022-10-09T01:01:00.115Z,18.10
2022-10-09T01:03:45.425Z,16.13
2022-10-09T01:09:33.905Z,11.50
2022-10-09T01:12:09.912Z,12.60
2022-10-09T01:14:41.356Z,11.97
2022-10-09T01:17:42.558Z,12.40
2022-10-09T01:20:23.788Z,11.80
2022-10-09T01:23:01.359Z,12.90
2022-10-09T01:25:33.946Z,14.03
2022-10-09T01:28:53.032Z,14.60
2022-10-09T01:32:07.743Z,16.77
2022-10-09T01:34:38.737Z,16.27
2022-10-09T01:37:08.359Z,15.73
2022-10-09T01:39:38.888Z,17.10
2022-10-09T01:42:13.172Z,17.57
2022-10-09T01:44:44.271Z,17.30
2022-10-09T01:47:16.703Z,19.33
2022-10-09T01:49:51.008Z,19.97
2022-10-09T02:12:29.121Z,19.97
2022-10-09T02:16:04.984Z,20.30
2022-10-09T02:18:38.381Z,21.40
2022-10-09T02:27:54.408Z,22.03
2022-10-09T02:31:03.833Z,21.73
2022-10-09T02:33:42.918Z,20.17
2022-10-09T02:36:11.395Z,19.27
2022-10-09T02:39:03.835Z,19.37
2022-10-09T02:41:53.675Z,21.13
2022-10-09T02:44:33.089Z,21.13
2022-10-09T02:47:06.777Z,19.97
2022-10-09T02:50:04.309Z,21.87
2022-10-09T02:52:46.332Z,23.90
2022-10-09T02:55:21.500Z,23.50
2022-10-09T02:58:31.132Z,25.40
2022-10-09T03:01:13.885Z,24.57
2022-10-09T03:03:42.298Z,24.73
2022-10-09T03:09:19.828Z,25.37
2022-10-09T03:12:24.101Z,22.67
2022-10-09T03:15:21.073Z,21.37
2022-10-09T03:28:08.328Z,16.43
2022-10-09T03:31:51.364Z,12.73
2022-10-09T03:34:52.534Z,13.97
2022-10-09T03:47:48.327Z,16.20
2022-10-09T04:01:02.400Z,16.40
2022-10-09T04:03:45.053Z,16.67
2022-10-09T04:06:14.699Z,17.60
2022-10-09T04:22:46.433Z,18.47
2022-10-09T04:25:25.580Z,18.17
2022-10-09T04:27:57.823Z,18.93
2022-10-09T04:30:37.036Z,18.90
2022-10-09T04:33:12.691Z,18.23
2022-10-09T04:35:58.020Z,18.70
2022-10-09T04:38:34.899Z,18.63
2022-10-09T04:41:03.551Z,17.27
2022-10-09T04:43:46.776Z,17.83
2022-10-09T04:46:16.606Z,19.20
2022-10-09T04:48:48.441Z,17.40
2022-10-09T04:51:25.434Z,18.17
2022-10-09T04:54:00.766Z,18.37
2022-10-09T04:56:31.912Z,18.00
2022-10-09T04:59:02.581Z,16.93
2022-10-09T05:01:38.356Z,17.73
2022-10-09T05:04:07.429Z,19.60
2022-10-09T05:06:35.990Z,18.57
2022-10-09T05:09:13.760Z,18.97
2022-10-09T05:11:54.203Z,17.87
2022-10-09T05:14:25.174Z,17.53
2022-10-09T05:24:10.361Z,19.93
2022-10-09T05:30:07.793Z,20.03
2022-10-09T05:35:54.099Z,20.13
2022-10-09T05:39:01.711Z,21.30
2022-10-09T05:42:00.929Z,20.57
2022-10-09T05:48:06.415Z,20.77
2022-10-09T05:50:35.410Z,20.80
2022-10-09T05:53:13.906Z,19.70
2022-10-09T05:55:49.196Z,17.97
2022-10-09T06:01:35.269Z,16.27
2022-10-09T06:04:27.411Z,15.93
2022-10-09T06:06:58.073Z,15.90
2022-10-09T06:09:36.662Z,17.77
2022-10-09T06:13:32.903Z,17.47
2022-10-09T06:18:46.809Z,16.60
2022-10-09T06:24:39.660Z,16.40
2022-10-09T06:27:23.214Z,15.30
2022-10-09T06:29:51.141Z,19.63
2022-10-09T06:32:45.395Z,18.87
2022-10-09T06:35:21.660Z,20.77
2022-10-09T06:38:21.984Z,24.10
2022-10-09T06:40:54.719Z,25.07
2022-10-09T06:43:28.725Z,28.17
2022-10-09T06:46:00.346Z,26.60
2022-10-09T06:48:31.534Z,25.97
2022-10-09T06:51:07.085Z,25.97
2022-10-09T07:00:41.382Z,15.57
2022-10-09T07:03:45.412Z,16.07
2022-10-09T07:06:16.671Z,14.20
2022-10-09T07:12:15.665Z,15.77
2022-10-09T07:14:56.877Z,16.10
2022-10-09T07:17:30.744Z,16.83
2022-10-09T07:20:02.795Z,18.37
2022-10-09T07:22:39.204Z,20.63
2022-10-09T07:25:19.034Z,22.00
2022-10-09T07:28:22.638Z,21.43
2022-10-09T07:30:56.958Z,15.87
2022-10-09T07:33:35.322Z,20.53
2022-10-09T07:36:10.268Z,18.50
2022-10-09T07:41:51.914Z,14.03
2022-10-09T07:44:48.528Z,18.70
2022-10-09T07:47:28.390Z,12.33
2022-10-09T07:50:05.569Z,13.47
2022-10-09T07:52:41.415Z,17.57
2022-10-09T07:55:15.737Z,17.17
2022-10-09T07:57:46.388Z,13.37
2022-10-09T08:00:15.618Z,12.97
2022-10-09T08:02:47.892Z,12.47
2022-10-09T08:05:16.442Z,12.43
2022-10-09T08:07:46.307Z,12.67
2022-10-09T08:10:19.851Z,15.20
2022-10-09T08:13:07.828Z,16.80
2022-10-09T08:15:40.837Z,18.30
2022-10-09T08:18:12.858Z,15.50
2022-10-09T08:20:42.700Z,14.23
2022-10-09T08:23:12.578Z,13.50
2022-10-09T08:25:43.579Z,12.83
2022-10-09T08:28:14.249Z,12.70
2022-10-09T08:30:42.123Z,13.07
2022-10-09T08:33:10.575Z,10.67
2022-10-09T08:35:38.687Z,7.90
2022-10-09T08:38:07.230Z,8.80
2022-10-09T08:40:40.837Z,8.27
2022-10-09T08:43:15.364Z,9.20
2022-10-09T08:45:46.299Z,10.27
2022-10-09T08:48:17.564Z,10.27
2022-10-09T08:50:48.521Z,9.85
2022-10-09T08:53:20.247Z,11.13
2022-10-09T08:55:54.931Z,11.77
2022-10-09T08:58:23.396Z,10.73
2022-10-09T09:00:53.691Z,12.65
2022-10-09T09:07:13.894Z,9.88
2022-10-09T09:09:47.089Z,9.97
2022-10-09T09:12:23.630Z,10.20
2022-10-09T09:14:58.570Z,10.35
2022-10-09T09:17:28.657Z,11.32
2022-10-09T09:20:01.167Z,11.43
2022-10-09T09:22:29.437Z,11.23
2022-10-09T09:24:58.650Z,12.00
2022-10-09T09:27:32.856Z,11.30
2022-10-09T09:30:03.216Z,10.03
2022-10-09T09:32:31.983Z,9.50
2022-10-09T09:35:04.726Z,9.60
2022-10-09T09:37:32.588Z,9.80
2022-10-09T09:42:51.379Z,11.13
2022-10-09T09:45:21.485Z,10.77
2022-10-09T09:47:51.502Z,9.53
2022-10-09T09:50:47.179Z,9.43
2022-10-09T09:53:25.224Z,9.83
2022-10-09T09:55:53.638Z,10.03
2022-10-09T09:58:23.862Z,9.40
2022-10-09T10:00:58.086Z,8.93
2022-10-09T10:03:29.275Z,9.57
2022-10-09T10:05:58.015Z,9.60
2022-10-09T10:08:30.030Z,10.17
2022-10-09T10:10:58.961Z,11.30
2022-10-09T10:13:34.835Z,10.13
2022-10-09T10:16:03.205Z,12.50
2022-10-09T10:18:33.588Z,12.23
2022-10-09T10:21:04.975Z,12.70
2022-10-09T10:23:43.996Z,12.10
2022-10-09T10:26:16.578Z,12.07
2022-10-09T10:28:50.658Z,12.00
2022-10-09T10:31:25.074Z,11.87
2022-10-09T10:33:58.901Z,12.37
2022-10-09T10:36:29.105Z,14.17
2022-10-09T10:39:01.983Z,13.67
2022-10-09T10:41:32.254Z,11.40
2022-10-09T10:44:03.832Z,11.40
2022-10-09T10:46:33.673Z,12.23
2022-10-09T10:49:06.828Z,12.23
2022-10-09T10:51:47.329Z,11.17
2022-10-09T10:54:21.757Z,10.03
2022-10-09T10:56:51.208Z,10.77
2022-10-09T10:59:36.745Z,10.80
2022-10-09T11:02:18.227Z,11.03
2022-10-09T11:04:53.023Z,10.73
2022-10-09T11:07:34.573Z,10.43
2022-10-09T11:10:05.777Z,10.50
2022-10-09T11:12:57.798Z,11.17
2022-10-09T11:15:40.631Z,13.13
2022-10-09T11:18:34.598Z,9.97
2022-10-09T11:21:09.269Z,9.77
2022-10-09T11:23:44.905Z,8.70
2022-10-09T11:26:18.373Z,8.10
2022-10-09T11:28:52.942Z,9.87
2022-10-09T11:31:25.692Z,10.07
2022-10-09T11:33:55.749Z,11.80
2022-10-09T11:36:35.295Z,9.70
2022-10-09T11:39:06.416Z,9.03
2022-10-09T11:41:36.293Z,8.60
2022-10-09T11:44:16.564Z,8.40
2022-10-09T11:46:51.707Z,9.13
2022-10-09T11:49:23.571Z,17.20
2022-10-09T11:51:55.167Z,8.00
2022-10-09T11:54:24.111Z,8.87
2022-10-09T11:56:57.569Z,9.60
2022-10-09T11:59:29.851Z,10.03
2022-10-09T12:02:02.786Z,8.40
2022-10-09T12:04:50.432Z,8.70
2022-10-09T12:07:30.350Z,8.97
2022-10-09T12:10:02.424Z,9.40
2022-10-09T12:12:30.892Z,9.23
2022-10-09T12:14:58.880Z,8.80
2022-10-09T12:17:35.404Z,8.30
2022-10-09T12:20:06.662Z,8.67
2022-10-09T12:22:36.602Z,8.00
2022-10-09T12:25:07.704Z,8.53
2022-10-09T12:27:37.723Z,8.47
2022-10-09T12:30:08.941Z,8.57
2022-10-09T12:32:41.707Z,10.53
2022-10-09T12:35:15.303Z,9.23
2022-10-09T12:37:43.192Z,9.37
2022-10-09T12:40:15.565Z,17.97
2022-10-09T12:42:47.330Z,13.83
2022-10-09T12:45:17.697Z,10.57
2022-10-09T12:47:48.628Z,9.50
2022-10-09T12:50:28.730Z,10.53
2022-10-09T12:52:58.853Z,10.27
2022-10-09T12:55:28.686Z,10.60
2022-10-09T12:57:57.837Z,11.33
2022-10-09T13:00:25.713Z,10.23
2022-10-09T13:02:55.637Z,9.57
2022-10-09T13:05:23.689Z,11.23
2022-10-09T13:07:52.640Z,12.23
2022-10-09T13:10:21.493Z,11.87
2022-10-09T13:12:51.389Z,11.60
2022-10-09T13:15:35.257Z,12.67
2022-10-09T13:18:48.550Z,11.33
2022-10-09T13:22:00.819Z,9.70
2022-10-09T13:24:52.128Z,8.70
2022-10-09T13:31:01.580Z,8.13
2022-10-09T13:33:36.059Z,7.90
2022-10-09T13:36:39.905Z,8.77
2022-10-09T13:39:05.883Z,7.90
2022-10-09T13:42:02.361Z,9.07
2022-10-09T13:45:00.369Z,8.10
2022-10-09T13:47:29.186Z,7.77
2022-10-09T13:49:57.329Z,6.67
2022-10-09T13:52:24.989Z,7.27
2022-10-09T13:54:53.153Z,7.77
2022-10-09T13:57:23.366Z,7.20
2022-10-09T13:59:54.340Z,8.13
2022-10-09T14:02:25.055Z,7.60
2022-10-09T14:04:52.852Z,8.90
2022-10-09T14:07:53.301Z,7.37
2022-10-09T14:10:26.986Z,6.97
2022-10-09T14:12:57.428Z,7.20
2022-10-09T14:15:25.821Z,7.80
2022-10-09T14:17:56.108Z,7.00
2022-10-09T14:20:25.241Z,7.27
2022-10-09T14:22:52.967Z,7.10
2022-10-09T14:25:23.435Z,7.30
2022-10-09T14:27:51.149Z,7.20
2022-10-09T14:30:20.705Z,9.17
2022-10-09T14:32:51.746Z,7.30
2022-10-09T14:35:21.544Z,8.77
2022-10-09T14:37:49.931Z,14.50
2022-10-09T14:40:22.167Z,10.60
2022-10-09T14:42:52.955Z,9.03
2022-10-09T14:45:22.346Z,10.07
2022-10-09T14:47:50.387Z,10.43
2022-10-09T14:50:18.527Z,14.57
2022-10-09T14:52:47.211Z,13.30
2022-10-09T14:55:15.140Z,10.37
2022-10-09T14:57:52.706Z,11.97
2022-10-09T15:00:20.765Z,12.43
2022-10-09T15:02:51.909Z,11.83
2022-10-09T15:05:25.347Z,10.97
2022-10-09T15:07:58.656Z,10.37
2022-10-09T15:10:29.540Z,11.30
2022-10-09T15:12:57.293Z,11.03
2022-10-09T15:15:33.163Z,11.00
2022-10-09T15:18:06.926Z,11.50
2022-10-09T15:20:34.595Z,10.80
2022-10-09T15:23:02.326Z,11.70
2022-10-09T15:25:32.356Z,11.43
2022-10-09T15:28:01.626Z,10.47
2022-10-09T15:30:34.471Z,10.83
2022-10-09T15:33:04.022Z,11.23
2022-10-09T15:35:33.826Z,9.37
2022-10-09T15:38:01.766Z,10.17
2022-10-09T15:40:31.454Z,8.67
2022-10-09T15:42:59.192Z,8.43
2022-10-09T15:45:27.283Z,8.13
2022-10-09T15:47:55.887Z,9.47
2022-10-09T15:50:25.410Z,8.50
2022-10-09T15:52:54.956Z,10.00
2022-10-09T15:55:22.919Z,9.93
2022-10-09T15:57:50.998Z,9.77
2022-10-09T16:00:18.808Z,10.10
2022-10-09T16:02:46.807Z,11.40
2022-10-09T16:05:14.806Z,12.33
2022-10-09T16:07:44.365Z,11.73
2022-10-09T16:10:17.910Z,12.17
2022-10-09T16:12:45.597Z,10.93
2022-10-09T16:15:17.030Z,11.03
2022-10-09T16:17:47.152Z,10.43
2022-10-09T16:20:15.375Z,10.03
2022-10-09T16:22:54.109Z,9.87
2022-10-09T16:25:28.573Z,9.87
2022-10-09T16:28:02.634Z,9.97
2022-10-09T16:30:32.754Z,10.07
2022-10-09T16:33:00.884Z,10.03
2022-10-09T16:35:30.439Z,12.67
2022-10-09T16:37:59.687Z,12.40
2022-10-09T16:40:56.862Z,15.83
2022-10-09T16:43:24.430Z,16.93
2022-10-09T16:45:53.705Z,13.43
2022-10-09T16:48:25.539Z,15.27
2022-10-09T16:50:53.611Z,14.50
2022-10-09T16:53:22.896Z,17.03
2022-10-09T16:55:50.728Z,32.90
2022-10-09T16:58:18.839Z,18.23
2022-10-09T17:00:46.614Z,18.17
2022-10-09T17:03:14.378Z,18.37
2022-10-09T17:05:42.087Z,27.63
2022-10-09T17:08:10.504Z,17.93
2022-10-09T17:10:43.624Z,17.50
2022-10-09T17:13:13.843Z,15.50
2022-10-09T17:15:49.694Z,15.60
2022-10-09T17:18:17.697Z,31.07
2022-10-09T17:20:48.733Z,24.97
2022-10-09T17:23:23.967Z,12.90
2022-10-09T17:25:55.185Z,12.13
2022-10-09T17:28:23.820Z,11.80
2022-10-09T17:30:53.225Z,11.63
2022-10-09T17:33:22.461Z,15.90
2022-10-09T17:35:54.307Z,12.90
2022-10-09T17:38:25.429Z,13.37
2022-10-09T17:40:54.818Z,15.03
2022-10-09T17:43:39.896Z,15.40
2022-10-09T17:46:33.497Z,17.23
2022-10-09T17:49:04.278Z,14.90
2022-10-09T17:51:34.036Z,15.63
2022-10-09T17:54:03.977Z,16.27
2022-10-09T17:56:36.682Z,16.20
2022-10-09T17:59:05.480Z,17.03
2022-10-09T18:01:33.824Z,18.23
2022-10-09T18:04:03.744Z,19.13
2022-10-09T18:06:33.291Z,17.80
2022-10-09T18:09:01.220Z,18.63
2022-10-09T18:11:30.120Z,18.43
2022-10-09T18:13:59.578Z,20.40
2022-10-09T18:16:35.356Z,18.17
2022-10-09T18:19:04.918Z,15.87
2022-10-09T18:21:34.957Z,14.30
2022-10-09T18:24:03.265Z,15.40
2022-10-09T18:26:31.170Z,14.73
2022-10-09T18:29:01.223Z,16.43
2022-10-09T18:31:29.191Z,14.17
2022-10-09T18:33:58.886Z,14.43
2022-10-09T18:36:31.675Z,15.40
2022-10-09T18:39:00.941Z,15.80
2022-10-09T18:41:29.620Z,16.03
2022-10-09T18:43:59.943Z,14.17
2022-10-09T18:46:32.491Z,15.93
2022-10-09T18:49:00.996Z,22.87
2022-10-09T18:51:29.414Z,19.93
2022-10-09T18:53:59.123Z,22.43
2022-10-09T18:56:27.109Z,20.87
2022-10-09T18:58:54.963Z,19.60
2022-10-09T19:01:23.000Z,21.73
2022-10-09T19:03:52.519Z,21.60
2022-10-09T19:06:20.628Z,22.53
2022-10-09T19:08:49.026Z,22.67
2022-10-09T19:11:17.484Z,24.57
2022-10-09T19:13:45.925Z,23.20
2022-10-09T19:16:13.904Z,24.70
2022-10-09T19:18:41.747Z,27.13
2022-10-09T19:21:14.968Z,21.23
2022-10-09T19:23:44.420Z,21.13
2022-10-09T19:26:13.689Z,23.17
2022-10-09T19:28:41.816Z,21.87
2022-10-09T19:31:11.211Z,43.87
2022-10-09T19:33:40.055Z,21.57
2022-10-09T19:36:08.714Z,21.00
2022-10-09T19:38:37.827Z,20.30
2022-10-09T19:41:06.078Z,19.40
2022-10-09T19:43:35.837Z,20.53
2022-10-09T19:46:05.281Z,18.40
2022-10-09T19:48:33.161Z,18.40
2022-10-09T19:51:03.142Z,17.47
2022-10-09T19:53:31.574Z,19.07
2022-10-09T19:56:00.725Z,32.17
2022-10-09T19:58:28.606Z,25.20
2022-10-09T20:00:57.070Z,18.17
2022-10-09T20:03:25.137Z,17.23
2022-10-09T20:05:53.563Z,18.50
2022-10-09T20:08:21.389Z,17.27
2022-10-09T20:10:51.618Z,16.43
2022-10-09T20:13:21.075Z,17.43
2022-10-09T20:15:49.311Z,18.83
2022-10-09T20:18:17.257Z,17.77
2022-10-09T20:20:49.824Z,18.70
2022-10-09T20:23:17.991Z,17.93
2022-10-09T20:25:47.662Z,17.93
2022-10-09T20:28:15.857Z,23.60
2022-10-09T20:30:45.164Z,18.83
2022-10-09T20:33:13.584Z,19.30
2022-10-09T20:35:45.544Z,16.13
2022-10-09T20:38:14.693Z,17.93
2022-10-09T20:40:43.277Z,17.00
2022-10-09T20:43:12.310Z,18.43
2022-10-09T20:45:44.161Z,16.50
2022-10-09T20:48:22.181Z,17.20
2022-10-09T20:50:51.651Z,17.00
2022-10-09T20:53:19.614Z,16.83
2022-10-09T20:55:48.067Z,17.43
2022-10-09T20:58:16.361Z,17.00
2022-10-09T21:00:45.008Z,15.73
2022-10-09T21:03:13.465Z,17.30
2022-10-09T21:05:44.006Z,15.93
2022-10-09T21:15:10.365Z,14.17
2022-10-09T21:18:22.290Z,14.50
2022-10-09T21:37:37.517Z,15.73
2022-10-09T21:40:12.601Z,15.80
2022-10-09T21:42:53.682Z,14.33
2022-10-09T21:45:22.014Z,14.23
2022-10-09T21:47:51.521Z,14.83
2022-10-09T21:50:37.747Z,14.77
2022-10-09T21:53:29.238Z,14.90
2022-10-09T22:09:50.588Z,17.20
2022-10-09T22:15:53.116Z,17.50
2022-10-09T22:21:34.662Z,17.20
2022-10-09T22:24:03.258Z,17.13
2022-10-09T22:26:42.740Z,17.60
2022-10-09T22:29:51.228Z,17.40
2022-10-09T22:32:21.210Z,16.80
2022-10-09T22:34:51.295Z,17.67
2022-10-09T22:37:21.954Z,19.27
2022-10-09T22:39:57.235Z,16.67
2022-10-09T22:42:26.574Z,17.80
2022-10-09T22:44:54.451Z,16.53
2022-10-09T22:47:31.690Z,17.83
2022-10-09T22:50:00.167Z,17.37
2022-10-09T22:52:29.197Z,17.63
2022-10-09T22:55:00.871Z,17.73
2022-10-09T22:57:35.594Z,17.17
2022-10-09T23:00:13.738Z,16.10
2022-10-09T23:02:41.840Z,16.97
2022-10-09T23:05:10.296Z,16.53
2022-10-09T23:07:38.753Z,17.03
2022-10-09T23:10:07.428Z,16.40
2022-10-09T23:13:13.088Z,15.73
2022-10-09T23:15:44.740Z,14.63
2022-10-09T23:21:45.527Z,11.63
2022-10-09T23:24:18.020Z,11.83
2022-10-09T23:26:47.263Z,13.07
2022-10-09T23:33:46.733Z,11.57
2022-10-09T23:36:44.295Z,11.20
2022-10-09T23:57:39.036Z,11.13
